Time;durP1;ratioP1;P1;durP2;ratioP2;P2;SDS_P1;SDS_P2;PMS_P1;PMS_P2;Temp;Humidity;BMP_temperature;BMP_pressure;BME280_temperature;BME280_humidity;BME280_pressure;Samples;Min_cycle;Max_cycle;Signal;HPM_P1;HPM_P2
2022/01/26 00:00:07;;;;;;;0.70;0.70;;;;;;;-1.55;93.17;98252.53;29373;213;63005;-70
2022/01/26 00:06:03;;;;;;;0.60;0.60;;;;;;;-1.56;92.94;98250.88;29373;248;63017;-71
2022/01/26 00:06:36;;;;;;;0.70;0.70;;;;;;;-1.55;92.76;98260.53;29373;255;63005;-71
2022/01/26 00:07:07;;;;;;;0.70;0.70;;;;;;;-1.59;92.87;98251.25;29373;197;63009;-72
2022/01/26 00:07:40;;;;;;;0.70;0.70;;;;;;;-1.64;92.81;98248.31;29373;218;63005;-72
2022/01/26 00:08:11;;;;;;;0.70;0.70;;;;;;;-1.66;92.75;98252.97;29373;260;63026;-71
2022/01/26 00:08:42;;;;;;;0.70;0.70;;;;;;;-1.67;93.08;98254.00;29373;236;63005;-72
2022/01/26 00:09:14;;;;;;;0.60;0.60;;;;;;;-1.66;92.91;98255.66;29371;202;64013;-71
2022/01/26 00:09:45;;;;;;;0.60;0.60;;;;;;;-1.66;92.91;98250.31;29373;211;63005;-70
2022/01/26 00:10:17;;;;;;;0.70;0.70;;;;;;;-1.67;93.04;98254.00;29373;234;63009;-72
2022/01/26 00:10:48;;;;;;;0.70;0.70;;;;;;;-1.66;92.90;98247.66;29373;216;63004;-71
2022/01/26 00:11:19;;;;;;;0.60;0.60;;;;;;;-1.65;93.21;98249.31;29371;257;64013;-67
2022/01/26 00:11:51;;;;;;;0.70;0.70;;;;;;;-1.62;93.15;98250.78;29373;206;63004;-66
2022/01/26 00:12:22;;;;;;;0.70;0.70;;;;;;;-1.61;93.43;98237.31;29372;211;63009;-68
2022/01/26 00:12:53;;;;;;;0.77;0.77;;;;;;;-1.58;93.22;98239.59;29373;196;63004;-69
2022/01/26 00:13:24;;;;;;;0.70;0.70;;;;;;;-1.57;93.50;98254.56;29373;226;63009;-70
2022/01/26 00:13:55;;;;;;;0.70;0.70;;;;;;;-1.59;93.21;98240.59;29373;221;63005;-71
2022/01/26 00:14:27;;;;;;;0.70;0.70;;;;;;;-1.61;93.53;98242.63;29371;255;64014;-71
2022/01/26 00:14:58;;;;;;;0.80;0.80;;;;;;;-1.62;93.50;98248.94;29373;226;63005;-69
2022/01/26 00:15:30;;;;;;;0.60;0.60;;;;;;;-1.62;93.48;98246.28;29373;243;63019;-70
2022/01/26 00:16:05;;;;;;;0.60;0.60;;;;;;;-1.62;93.17;98246.28;29373;212;63005;-70
2022/01/26 00:16:39;;;;;;;0.70;0.70;;;;;;;-1.59;93.59;98245.09;29373;248;63009;-69
2022/01/26 00:17:11;;;;;;;0.70;0.70;;;;;;;-1.58;93.55;98249.41;29373;219;63005;-69
2022/01/26 00:17:43;;;;;;;0.70;0.70;;;;;;;-1.57;93.46;98249.25;29373;212;63009;-70
2022/01/26 00:18:16;;;;;;;0.70;0.70;;;;;;;-1.56;93.37;98244.75;29373;235;63004;-69
2022/01/26 00:18:47;;;;;;;0.70;0.70;;;;;;;-1.55;93.69;98241.91;29373;219;63009;-69
2022/01/26 00:19:23;;;;;;;0.70;0.70;;;;;;;-1.54;93.46;98243.53;29373;227;63004;-70
2022/01/26 00:20:03;;;;;;;0.70;0.70;;;;;;;-1.53;93.35;98245.19;29371;239;64013;-69
2022/01/26 00:20:56;;;;;;;0.70;0.70;;;;;;;-1.54;93.37;98254.19;29373;296;63004;-71
2022/01/26 00:21:35;;;;;;;0.60;0.60;;;;;;;-1.57;93.55;98249.25;29373;197;63009;-70
2022/01/26 00:22:06;;;;;;;0.60;0.60;;;;;;;-1.57;93.42;98243.91;29373;255;63005;-69
2022/01/26 00:24:05;;;;;;;0.70;0.70;;;;;;;-1.54;93.28;98243.53;29373;241;63005;-70
2022/01/26 00:24:55;;;;;;;0.70;0.70;;;;;;;-1.58;93.57;98247.59;29373;286;63009;-69
2022/01/26 00:26:02;;;;;;;0.70;0.70;;;;;;;-1.58;93.46;98244.09;29371;215;64009;-70
2022/01/26 00:27:51;;;;;;;0.70;0.70;;;;;;;-1.62;93.40;98248.94;29395;250;63004;-72
2022/01/26 00:29:14;;;;;;;0.70;0.70;;;;;;;-1.67;93.79;98248.66;29373;220;63005;-71
2022/01/26 00:29:57;;;;;;;0.70;0.70;;;;;;;-1.68;93.79;98249.69;29371;199;64014;-71
2022/01/26 00:38:33;;;;;;;0.70;0.70;;;;;;;-1.76;94.03;98260.44;29373;202;63004;-71
2022/01/26 00:38:41;;;;;;;0.70;0.70;;;;;;;-1.81;94.74;98247.66;29373;209;63009;-73
2022/01/26 00:39:12;;;;;;;0.60;0.60;;;;;;;-1.83;94.44;98238.22;29373;242;63016;-69
2022/01/26 00:39:43;;;;;;;0.70;0.70;;;;;;;-1.77;94.80;98248.94;29373;252;63009;-70
2022/01/26 00:41:34;;;;;;;0.70;0.70;;;;;;;-1.68;94.61;98244.34;29373;202;63009;-67
2022/01/26 00:42:06;;;;;;;0.70;0.70;;;;;;;-1.67;94.57;98246.00;29371;254;64009;-68
2022/01/26 00:42:39;;;;;;;0.70;0.70;;;;;;;-1.64;94.98;98248.31;29371;222;64013;-69
2022/01/26 00:43:24;;;;;;;0.60;0.60;;;;;;;-1.63;94.75;98243.81;29373;264;63012;-70
2022/01/26 00:43:56;;;;;;;0.70;0.70;;;;;;;-1.65;94.84;98249.31;29373;215;63017;-68
2022/01/26 00:44:36;;;;;;;0.70;0.70;;;;;;;-1.65;94.67;98251.97;29373;214;63005;-69
2022/01/26 00:45:09;;;;;;;0.70;0.70;;;;;;;-1.64;94.81;98247.47;29373;203;63009;-71
2022/01/26 00:45:41;;;;;;;0.68;0.68;;;;;;;-1.66;94.66;98250.31;29373;230;63005;-71
2022/01/26 00:46:13;;;;;;;0.60;0.60;;;;;;;-1.69;94.69;98250.69;29373;205;63009;-71
2022/01/26 00:46:48;;;;;;;0.70;0.70;;;;;;;-1.72;94.65;98256.37;29373;202;63005;-71
2022/01/26 00:47:19;;;;;;;0.98;0.98;;;;;;;-1.75;94.85;98248.78;29371;231;64013;-70
2022/01/26 00:47:51;;;;;;;0.68;0.68;;;;;;;-1.77;94.92;98253.44;29373;215;63004;-71
2022/01/26 00:48:24;;;;;;;0.80;0.80;;;;;;;-1.77;94.84;98248.94;29373;306;63009;-70
2022/01/26 00:48:55;;;;;;;0.60;0.60;;;;;;;-1.76;95.10;98253.28;29373;197;63004;-70
2022/01/26 00:49:28;;;;;;;0.65;0.65;;;;;;;-1.74;95.02;98253.09;29373;268;63009;-67
2022/01/26 00:50:06;;;;;;;0.70;0.70;;;;;;;-1.69;95.19;98250.69;29373;279;63004;-67
2022/01/26 00:50:39;;;;;;;0.70;0.70;;;;;;;-1.59;95.38;98256.56;29373;233;63008;-69
2022/01/26 00:51:15;;;;;;;0.70;0.70;;;;;;;-1.52;95.21;98256.69;29373;324;63005;-68
2022/01/26 00:51:47;;;;;;;0.70;0.70;;;;;;;-1.48;95.08;98257.97;29371;207;64014;-68
2022/01/26 00:52:27;;;;;;;0.68;0.68;;;;;;;-1.50;94.64;98255.47;29373;221;63005;-71
2022/01/26 00:52:59;;;;;;;0.70;0.70;;;;;;;-1.51;94.79;98258.31;29371;202;64013;-69
2022/01/26 00:53:34;;;;;;;1.65;1.65;;;;;;;-1.48;94.79;98252.66;29373;273;63005;-68
2022/01/26 00:54:08;;;;;;;3.00;2.85;;;;;;;-1.48;94.58;98253.47;29373;233;63009;-69
2022/01/26 00:54:40;;;;;;;0.70;0.70;;;;;;;-1.48;94.51;98257.97;29373;234;63005;-69
2022/01/26 00:55:13;;;;;;;0.60;0.60;;;;;;;-1.50;94.60;98258.16;29373;197;63009;-69
2022/01/26 00:55:45;;;;;;;0.70;0.70;;;;;;;-1.47;94.48;98255.13;29371;208;64009;-68
2022/01/26 00:56:19;;;;;;;0.60;0.60;;;;;;;-1.38;94.54;98251.34;29373;229;63009;-68
2022/01/26 00:56:50;;;;;;;0.65;0.65;;;;;;;-1.37;94.23;98260.16;29373;242;63004;-70
2022/01/26 00:57:21;;;;;;;0.70;0.70;;;;;;;-1.43;94.24;98253.75;29373;199;63009;-68
2022/01/26 00:57:53;;;;;;;0.70;0.70;;;;;;;-1.45;93.95;98258.44;29371;231;64008;-71
2022/01/26 00:58:24;;;;;;;0.70;0.70;;;;;;;-1.44;93.94;98252.09;29373;233;63008;-68
2022/01/26 00:58:58;;;;;;;0.70;0.70;;;;;;;-1.43;93.99;98255.59;29373;217;63005;-70
2022/01/26 00:59:33;;;;;;;0.70;0.70;;;;;;;-1.44;94.02;98249.44;29373;207;63009;-69
2022/01/26 01:00:10;;;;;;;0.70;0.70;;;;;;;-1.41;93.92;98251.72;29373;233;63005;-70
2022/01/26 01:00:41;;;;;;;0.88;0.88;;;;;;;-1.31;94.10;98258.59;29371;285;64013;-67
2022/01/26 01:01:13;;;;;;;0.70;0.70;;;;;;;-1.29;93.75;98251.25;29373;202;63005;-56
2022/01/26 01:01:45;;;;;;;0.60;0.60;;;;;;;-1.31;93.65;98258.59;29373;329;63009;-56
2022/01/26 01:02:17;;;;;;;0.70;0.70;;;;;;;-1.35;93.49;98248.31;29373;274;63004;-68
2022/01/26 01:02:49;;;;;;;0.70;0.70;;;;;;;-1.36;93.82;98251.97;29373;214;63009;-67
2022/01/26 01:03:22;;;;;;;0.70;0.70;;;;;;;-1.36;93.58;98251.97;29371;215;64009;-69
2022/01/26 01:03:54;;;;;;;0.60;0.60;;;;;;;-1.31;93.75;98253.28;29373;223;63009;-68
2022/01/26 01:04:25;;;;;;;0.60;0.60;;;;;;;-1.28;93.65;98256.41;29373;244;63004;-56
2022/01/26 01:05:00;;;;;;;0.70;0.70;;;;;;;-1.29;93.82;98253.91;29373;213;63008;-69
2022/01/26 01:05:44;;;;;;;0.60;0.60;;;;;;;-1.32;93.43;98252.44;29373;216;63004;-70
2022/01/26 01:06:28;;;;;;;0.60;0.60;;;;;;;-1.37;93.73;98252.16;29373;234;63017;-69
2022/01/26 01:07:02;;;;;;;0.70;0.70;;;;;;;-1.39;93.43;98263.00;29373;228;63005;-68
2022/01/26 01:07:37;;;;;;;0.60;0.60;;;;;;;-1.36;93.86;98256.47;29373;226;63022;-67
2022/01/26 01:08:14;;;;;;;0.70;0.70;;;;;;;-1.29;93.57;98261.91;29371;226;64009;-69
2022/01/26 01:08:46;;;;;;;0.60;0.60;;;;;;;-1.27;93.80;98259.88;29373;209;63009;-68
2022/01/26 01:09:20;;;;;;;0.70;0.70;;;;;;;-1.27;93.48;98257.22;29373;214;63005;-70
2022/01/26 01:09:51;;;;;;;0.65;0.65;;;;;;;-1.31;93.64;98264.75;29373;224;63009;-70
2022/01/26 01:10:24;;;;;;;0.70;0.70;;;;;;;-1.33;93.38;98255.28;29371;225;64009;-68
2022/01/26 01:10:57;;;;;;;0.70;0.70;;;;;;;-1.36;93.67;98261.81;29373;221;63009;-69
2022/01/26 01:11:28;;;;;;;0.70;0.70;;;;;;;-1.32;93.57;98262.25;29373;223;63004;-66
2022/01/26 01:12:02;;;;;;;0.77;0.77;;;;;;;-1.25;93.75;98263.19;29373;218;63025;-65
2022/01/26 01:12:39;;;;;;;1.27;1.27;;;;;;;-1.18;93.51;98259.59;29373;232;63004;-68
2022/01/26 01:13:16;;;;;;;0.80;0.80;;;;;;;-1.12;93.24;98258.88;29373;270;63009;-69
2022/01/26 01:13:48;;;;;;;0.70;0.70;;;;;;;-1.05;92.91;98264.28;29371;199;64009;-69
2022/01/26 01:14:20;;;;;;;0.70;0.70;;;;;;;-1.11;92.70;98262.38;29373;284;63009;-68
2022/01/26 01:14:51;;;;;;;0.70;0.70;;;;;;;-1.19;92.25;98257.13;29373;248;63005;-69
2022/01/26 01:15:24;;;;;;;1.12;1.12;;;;;;;-1.18;92.40;98261.44;29373;260;63009;-67
2022/01/26 01:15:56;;;;;;;1.60;1.60;;;;;;;-1.20;92.44;98260.81;29373;242;63009;-56
2022/01/26 01:16:28;;;;;;;0.70;0.70;;;;;;;-1.24;92.65;98265.66;29371;245;64013;-68
2022/01/26 01:17:03;;;;;;;0.68;0.68;;;;;;;-1.30;92.56;98260.25;29373;202;63005;-69
2022/01/26 01:17:40;;;;;;;0.60;0.60;;;;;;;-1.37;92.97;98260.97;29373;235;63009;-70
2022/01/26 01:18:22;;;;;;;0.68;0.68;;;;;;;-1.44;92.82;98265.41;29373;229;63004;-68
2022/01/26 01:19:12;;;;;;;0.70;0.70;;;;;;;-1.49;93.33;98262.47;29373;258;63009;-70
2022/01/26 01:20:01;;;;;;;1.08;1.08;;;;;;;-1.53;93.52;98266.50;29373;220;63004;-67
2022/01/26 01:20:56;;;;;;;0.70;0.70;;;;;;;-1.49;93.91;98270.44;29373;230;63009;-68
2022/01/26 01:22:04;;;;;;;0.70;0.70;;;;;;;-1.39;93.82;98267.53;29393;259;64009;-71
2022/01/26 01:28:21;;;;;;;0.60;0.60;;;;;;;-1.24;93.40;98265.66;29373;303;63008;-67
2022/01/26 01:30:05;;;;;;;0.98;0.98;;;;;;;-1.36;93.31;98256.47;29373;206;63016;-68
2022/01/26 01:30:41;;;;;;;0.70;0.70;;;;;;;-1.43;93.31;98251.09;29371;210;64009;-69
2022/01/26 01:31:19;;;;;;;0.70;0.70;;;;;;;-1.47;93.39;98255.13;29373;196;63009;-66
2022/01/26 01:32:00;;;;;;;0.70;0.70;;;;;;;-1.47;93.62;98254.28;29373;218;63005;-68
2022/01/26 01:32:39;;;;;;;0.70;0.70;;;;;;;-1.48;93.80;98252.66;29395;202;63009;-68
2022/01/26 01:33:17;;;;;;;0.60;0.60;;;;;;;-1.50;93.80;98252.81;29395;269;63004;-68
2022/01/26 01:33:48;;;;;;;0.70;0.70;;;;;;;-1.52;93.90;98256.69;29373;197;63025;-69
2022/01/26 01:34:26;;;;;;;0.70;0.70;;;;;;;-1.54;94.03;98248.03;29373;229;63004;-68
2022/01/26 01:34:59;;;;;;;0.70;0.70;;;;;;;-1.56;94.34;98245.56;29373;229;63008;-67
2022/01/26 01:35:33;;;;;;;0.60;0.60;;;;;;;-1.58;94.15;98250.25;29373;235;63004;-68
2022/01/26 01:36:05;;;;;;;0.60;0.60;;;;;;;-1.60;94.44;98256.75;29371;275;64029;-68
2022/01/26 01:36:39;;;;;;;0.60;0.60;;;;;;;-1.61;94.29;98253.28;29373;261;63005;-67
2022/01/26 01:37:15;;;;;;;0.70;0.70;;;;;;;-1.63;94.57;98263.25;29373;197;63009;-67
2022/01/26 01:37:47;;;;;;;0.70;0.70;;;;;;;-1.63;94.44;98255.28;29373;234;63005;-69
2022/01/26 01:38:20;;;;;;;0.70;0.70;;;;;;;-1.63;94.83;98252.62;29372;249;63009;-68
2022/01/26 01:38:54;;;;;;;0.90;0.90;;;;;;;-1.64;94.74;98258.94;29373;202;63005;-67
2022/01/26 01:39:25;;;;;;;0.70;0.70;;;;;;;-1.65;94.92;98262.63;29373;219;63009;-56
2022/01/26 01:39:56;;;;;;;0.60;0.60;;;;;;;-1.65;94.94;98257.28;29373;203;63004;-68
2022/01/26 01:40:28;;;;;;;0.60;0.60;;;;;;;-1.66;95.08;98252.97;29372;242;63009;-67
2022/01/26 01:40:59;;;;;;;0.60;0.60;;;;;;;-1.66;95.06;98258.31;29373;205;63004;-70
2022/01/26 01:41:30;;;;;;;0.60;0.60;;;;;;;-1.67;94.91;98259.31;29371;196;64013;-68
2022/01/26 01:42:04;;;;;;;0.60;0.60;;;;;;;-1.68;94.92;98257.66;29373;240;63004;-70
2022/01/26 01:42:35;;;;;;;0.62;0.62;;;;;;;-1.67;95.18;98259.31;29373;273;63023;-67
2022/01/26 01:43:07;;;;;;;0.70;0.70;;;;;;;-1.66;94.96;98260.12;29373;225;63005;-69
2022/01/26 01:43:38;;;;;;;0.70;0.70;;;;;;;-1.67;95.41;98259.31;29373;241;63009;-67
2022/01/26 01:44:11;;;;;;;0.70;0.70;;;;;;;-1.66;95.32;98260.97;29373;214;63005;-68
2022/01/26 01:44:42;;;;;;;0.70;0.70;;;;;;;-1.67;95.43;98259.31;29373;205;63009;-69
2022/01/26 01:45:14;;;;;;;0.70;0.70;;;;;;;-1.66;95.13;98262.81;29371;256;64021;-70
2022/01/26 01:45:50;;;;;;;0.70;0.70;;;;;;;-1.67;95.35;98256.66;29373;212;63009;-67
2022/01/26 01:46:21;;;;;;;0.70;0.70;;;;;;;-1.66;95.21;98260.12;29373;211;63005;-56
2022/01/26 01:46:53;;;;;;;0.70;0.70;;;;;;;-1.67;95.46;98267.28;29371;216;64013;-69
2022/01/26 01:47:25;;;;;;;0.70;0.70;;;;;;;-1.68;95.53;98257.66;29373;208;63004;-68
2022/01/26 01:47:56;;;;;;;0.70;0.70;;;;;;;-1.72;95.43;98257.19;29373;216;63009;-68
2022/01/26 01:48:32;;;;;;;0.70;0.70;;;;;;;-1.75;95.44;98256.75;29373;217;63004;-67
2022/01/26 01:49:06;;;;;;;0.70;0.70;;;;;;;-1.75;95.57;98262.91;29371;210;64013;-69
2022/01/26 01:49:37;;;;;;;0.70;0.70;;;;;;;-1.73;95.48;98260.03;29373;286;63004;-68
2022/01/26 01:50:12;;;;;;;0.60;0.60;;;;;;;-1.74;95.50;98263.72;29373;224;63008;-56
2022/01/26 01:50:43;;;;;;;0.60;0.60;;;;;;;-1.77;95.69;98259.59;29373;269;63005;-68
2022/01/26 01:51:17;;;;;;;0.70;0.70;;;;;;;-1.78;95.42;98257.13;29373;216;63005;-67
2022/01/26 01:51:53;;;;;;;0.70;0.70;;;;;;;-1.77;95.47;98256.09;29373;213;63005;-68
2022/01/26 01:52:26;;;;;;;0.70;0.70;;;;;;;-1.79;95.91;98255.47;29371;280;64013;-67
2022/01/26 01:53:01;;;;;;;0.70;0.70;;;;;;;-1.81;95.69;98262.81;29373;316;63005;-67
2022/01/26 01:53:40;;;;;;;0.70;0.70;;;;;;;-1.80;95.77;98259.12;29371;237;64013;-69
2022/01/26 01:54:15;;;;;;;0.60;0.60;;;;;;;-1.79;95.65;98266.09;29373;205;63005;-67
2022/01/26 01:54:53;;;;;;;0.60;0.60;;;;;;;-1.78;95.81;98260.59;29373;197;63009;-66
2022/01/26 01:55:27;;;;;;;2.20;2.10;;;;;;;-1.75;95.84;98267.41;29373;196;63004;-67
2022/01/26 01:56:00;;;;;;;0.60;0.60;;;;;;;-1.74;96.13;98263.72;29373;218;63009;-69
2022/01/26 01:56:31;;;;;;;0.70;0.70;;;;;;;-1.73;95.89;98265.34;29373;241;63014;-66
2022/01/26 01:57:03;;;;;;;0.60;0.60;;;;;;;-1.71;96.23;98264.16;29373;230;63009;-67
2022/01/26 01:57:34;;;;;;;0.70;0.70;;;;;;;-1.66;96.21;98265.47;29371;247;64008;-69
2022/01/26 01:58:07;;;;;;;0.60;0.60;;;;;;;-1.65;96.01;98265.28;29373;257;63008;-67
2022/01/26 01:58:39;;;;;;;0.80;0.80;;;;;;;-1.63;96.20;98265.94;29373;228;63005;-68
2022/01/26 01:59:11;;;;;;;0.60;0.60;;;;;;;-1.65;96.07;98267.94;29373;226;63019;-67
2022/01/26 01:59:43;;;;;;;0.85;0.85;;;;;;;-1.65;95.90;98270.59;29373;213;63005;-68
2022/01/26 02:00:15;;;;;;;0.70;0.70;;;;;;;-1.66;95.99;98266.28;29373;198;63009;-67
2022/01/26 02:00:47;;;;;;;0.70;0.70;;;;;;;-1.67;95.94;98267.28;29373;225;63005;-67
2022/01/26 02:01:18;;;;;;;0.68;0.68;;;;;;;-1.62;95.79;98272.06;29373;198;63009;-66
2022/01/26 02:01:49;;;;;;;0.62;0.62;;;;;;;-1.56;96.11;98261.53;29371;240;64009;-66
2022/01/26 02:02:21;;;;;;;0.60;0.60;;;;;;;-1.52;95.98;98264.66;29373;228;63009;-67
2022/01/26 02:02:52;;;;;;;0.60;0.60;;;;;;;-1.52;95.71;98267.31;29372;202;63004;-67
2022/01/26 02:03:25;;;;;;;0.60;0.60;;;;;;;-1.54;95.67;98269.34;29371;220;64013;-69
2022/01/26 02:03:56;;;;;;;0.60;0.60;;;;;;;-1.57;95.40;98272.38;29373;264;63004;-65
2022/01/26 02:04:27;;;;;;;0.60;0.60;;;;;;;-1.61;95.66;98263.91;29373;208;63009;-70
2022/01/26 02:04:59;;;;;;;0.60;0.60;;;;;;;-1.67;95.18;98267.28;29371;213;64008;-68
2022/01/26 02:05:30;;;;;;;0.70;0.70;;;;;;;-1.75;95.09;98267.41;29373;196;63008;-68
2022/01/26 02:06:02;;;;;;;0.70;0.70;;;;;;;-1.77;95.06;98269.41;29373;216;63005;-69
2022/01/26 02:06:34;;;;;;;0.60;0.60;;;;;;;-1.77;95.48;98261.44;29373;214;63009;-55
2022/01/26 02:07:05;;;;;;;0.70;0.70;;;;;;;-1.77;95.30;98269.41;29373;258;63016;-67
2022/01/26 02:07:36;;;;;;;0.73;0.73;;;;;;;-1.77;95.48;98274.75;29371;203;64013;-56
2022/01/26 02:08:08;;;;;;;0.70;0.70;;;;;;;-1.78;95.41;98268.59;29373;254;63005;-69
2022/01/26 02:08:43;;;;;;;0.70;0.70;;;;;;;-1.76;95.77;98265.75;29373;206;63009;-67
2022/01/26 02:09:14;;;;;;;0.70;0.70;;;;;;;-1.76;95.48;98271.91;29373;265;63004;-68
2022/01/26 02:09:45;;;;;;;0.60;0.60;;;;;;;-1.74;95.76;98269.06;29373;294;63009;-68
2022/01/26 02:10:16;;;;;;;0.60;0.60;;;;;;;-1.74;95.54;98269.06;29373;276;63004;-67
2022/01/26 02:10:50;;;;;;;0.70;0.70;;;;;;;-1.73;95.75;98273.34;29373;208;63009;-68
2022/01/26 02:11:22;;;;;;;0.60;0.60;;;;;;;-1.74;95.58;98269.06;29373;234;63004;-68
2022/01/26 02:11:56;;;;;;;0.70;0.70;;;;;;;-1.76;95.89;98266.56;29373;202;63008;-67
2022/01/26 02:12:28;;;;;;;0.60;0.60;;;;;;;-1.77;95.81;98264.09;29373;225;63004;-65
2022/01/26 02:13:04;;;;;;;0.70;0.70;;;;;;;-1.77;95.74;98269.41;29371;217;64013;-67
2022/01/26 02:13:47;;;;;;;0.70;0.70;;;;;;;-1.77;95.65;98267.59;29373;281;63005;-68
2022/01/26 02:14:27;;;;;;;0.70;0.70;;;;;;;-1.78;95.99;98268.59;29373;220;63009;-68
2022/01/26 02:15:08;;;;;;;0.70;0.70;;;;;;;-1.77;95.71;98269.41;29393;205;64009;-64
2022/01/26 02:15:47;;;;;;;0.70;0.70;;;;;;;-1.69;95.82;98271.97;29395;246;63009;-65
2022/01/26 02:16:41;;;;;;;0.70;0.70;;;;;;;-1.66;95.84;98266.28;29373;250;63005;-67
2022/01/26 02:20:31;;;;;;;0.60;0.60;;;;;;;-1.77;95.35;98270.25;29371;242;64008;-68
2022/01/26 02:21:14;;;;;;;2.35;2.25;;;;;;;-1.78;95.57;98268.59;29373;208;63009;-67
2022/01/26 02:51:05;;;;;;;0.70;0.70;;;;;;;-1.66;94.44;98250.31;29373;217;63005;-64
2022/01/26 02:52:31;;;;;;;0.70;0.70;;;;;;;-1.81;94.14;98258.31;29373;259;63005;-63
2022/01/26 02:55:57;;;;;;;0.70;0.70;;;;;;;-1.89;94.44;98265.53;29395;345;63004;-64
2022/01/26 02:59:55;;;;;;;0.70;0.70;;;;;;;-1.90;94.84;98266.53;29373;232;63005;-64
2022/01/26 03:00:41;;;;;;;0.70;0.70;;;;;;;-1.92;94.68;98260.56;29371;292;64013;-66
2022/01/26 03:01:33;;;;;;;0.70;0.70;;;;;;;-1.95;94.52;98263.59;29373;230;63004;-65
2022/01/26 03:02:18;;;;;;;0.70;0.70;;;;;;;-1.99;94.48;98256.97;29395;252;63009;-63
2022/01/26 03:03:10;;;;;;;0.70;0.70;;;;;;;-1.94;94.67;98262.56;29395;248;63004;-65
2022/01/26 03:04:44;;;;;;;;;;;;;;;-1.96;94.59;98259.28;29973;983;29000;-63
2022/01/26 03:05:18;;;;;;;0.70;0.70;;;;;;;-1.98;94.71;98258.63;29422;206;63009;-64
2022/01/26 03:05:59;;;;;;;0.70;0.70;;;;;;;-2.00;94.69;98253.47;29395;303;63005;-66
2022/01/26 03:06:42;;;;;;;0.70;0.70;;;;;;;-2.02;94.74;98256.31;29395;274;63000;-57
2022/01/26 03:07:20;;;;;;;0.70;0.70;;;;;;;-2.03;94.59;98254.66;29395;315;63005;-64
2022/01/26 03:07:59;;;;;;;0.70;0.70;;;;;;;-2.06;94.87;98255.03;29373;202;63000;-65
2022/01/26 03:08:35;;;;;;;0.70;0.70;;;;;;;-2.11;94.58;98262.72;29373;204;63020;-65
2022/01/26 03:09:12;;;;;;;2.00;1.90;;;;;;;-2.13;94.80;98256.78;29371;215;64009;-66
2022/01/26 03:09:56;;;;;;;0.75;0.75;;;;;;;-2.17;94.62;98255.47;29371;210;64013;-67
2022/01/26 03:11:28;;;;;;;0.80;0.80;;;;;;;-2.23;95.04;98244.72;29373;202;63008;-65
2022/01/26 03:12:01;;;;;;;1.08;1.08;;;;;;;-2.22;95.02;98249.84;29373;214;63004;-64
2022/01/26 03:12:49;;;;;;;0.70;0.70;;;;;;;-2.23;95.03;98253.53;29373;213;63009;-66
2022/01/26 03:13:26;;;;;;;3.53;3.42;;;;;;;-2.24;95.12;98243.88;29371;209;64009;-56
2022/01/26 03:14:10;;;;;;;0.70;0.70;;;;;;;-2.25;95.16;98249.38;29373;218;63009;-65
2022/01/26 03:14:53;;;;;;;1.12;1.12;;;;;;;-2.26;95.22;98245.06;29373;200;63010;-65
2022/01/26 03:15:34;;;;;;;0.70;0.70;;;;;;;-2.27;95.30;98244.25;29373;205;63009;-66
2022/01/26 03:16:14;;;;;;;0.70;0.70;;;;;;;-2.28;95.31;98249.75;29457;197;125014;-64
2022/01/26 03:16:52;;;;;;;0.70;0.70;;;;;;;-2.28;95.45;98249.75;29417;202;63009;-64
2022/01/26 03:19:33;;;;;;;0.70;0.70;;;;;;;-2.28;95.71;98250.56;29395;221;63004;-65
2022/01/26 03:20:11;;;;;;;0.70;0.70;;;;;;;-2.27;95.98;98246.91;29395;204;63009;-64
2022/01/26 03:20:43;;;;;;;0.70;0.70;;;;;;;-2.28;95.71;98249.75;29373;215;63005;-64
2022/01/26 03:21:16;;;;;;;0.70;0.70;;;;;;;-2.28;95.70;98245.25;29373;371;63009;-66
2022/01/26 03:22:14;;;;;;;0.70;0.70;;;;;;;-2.28;96.01;98249.75;29371;303;64009;-64
2022/01/26 03:28:19;;;;;;;0.60;0.60;;;;;;;-2.29;96.06;98248.91;29373;311;63021;-65
2022/01/26 03:29:10;;;;;;;0.70;0.70;;;;;;;-2.34;96.12;98256.59;29373;199;63005;-66
2022/01/26 03:29:55;;;;;;;0.70;0.70;;;;;;;-2.36;95.71;98258.59;29395;387;63009;-66
2022/01/26 03:31:04;;;;;;;0.70;0.70;;;;;;;-2.36;95.77;98247.97;29395;232;63005;-65
2022/01/26 03:34:14;;;;;;;0.70;0.70;;;;;;;-2.28;96.09;98250.56;29400;193;63008;-65
2022/01/26 03:34:52;;;;;;;0.70;0.70;;;;;;;-2.15;96.14;98249.97;29371;237;64009;-57
2022/01/26 03:36:14;;;;;;;0.70;0.70;;;;;;;-2.15;95.60;98255.28;29373;209;63005;-67
2022/01/26 03:36:54;;;;;;;0.70;0.70;;;;;;;-2.15;95.61;98245.47;29373;254;63009;-63
2022/01/26 03:37:35;;;;;;;1.27;1.27;;;;;;;-2.10;95.78;98248.44;29373;227;63005;-65
2022/01/26 03:38:07;;;;;;;0.70;0.70;;;;;;;-2.08;95.70;98251.72;29395;206;63009;-64
2022/01/26 03:38:44;;;;;;;0.70;0.70;;;;;;;-2.03;95.30;98257.31;29394;324;64009;-63
2022/01/26 03:39:19;;;;;;;0.70;0.70;;;;;;;-1.95;95.03;98255.59;29373;237;63009;-63
2022/01/26 03:39:52;;;;;;;0.70;0.70;;;;;;;-1.97;94.54;98257.63;29373;332;63004;-65
2022/01/26 03:40:33;;;;;;;0.70;0.70;;;;;;;-2.02;94.32;98260.81;29373;221;63009;-62
2022/01/26 03:41:34;;;;;;;0.70;0.70;;;;;;;-2.08;94.04;98262.34;29395;244;63004;-63
2022/01/26 03:42:08;;;;;;;1.25;1.25;;;;;;;-2.10;94.17;98264.38;29417;274;63008;-62
2022/01/26 03:42:41;;;;;;;0.70;0.70;;;;;;;-2.09;93.77;98268.72;29395;198;63005;-64
2022/01/26 03:43:12;;;;;;;0.70;0.70;;;;;;;-2.10;93.90;98264.38;29373;218;63009;-64
2022/01/26 03:43:44;;;;;;;0.70;0.70;;;;;;;-2.16;93.44;98264.28;29371;218;64009;-64
2022/01/26 03:44:16;;;;;;;0.70;0.70;;;;;;;-2.20;93.56;98271.78;29371;215;64013;-64
2022/01/26 03:44:48;;;;;;;0.70;0.70;;;;;;;-2.19;93.59;98264.63;29373;303;63005;-64
2022/01/26 03:45:19;;;;;;;0.70;0.70;;;;;;;-2.23;93.18;98261.50;29373;219;63009;-64
2022/01/26 03:45:50;;;;;;;0.70;0.70;;;;;;;-2.24;93.39;98267.00;29373;271;63005;-66
2022/01/26 03:46:21;;;;;;;0.70;0.70;;;;;;;-2.24;93.33;98257.19;29373;218;63009;-63
2022/01/26 03:46:53;;;;;;;0.70;0.70;;;;;;;-2.21;93.59;98266.62;29373;223;63004;-63
2022/01/26 03:47:24;;;;;;;0.70;0.70;;;;;;;-2.21;93.62;98267.47;29373;337;63009;-64
2022/01/26 03:47:56;;;;;;;0.70;0.70;;;;;;;-2.21;93.23;98269.28;29373;212;63004;-65
2022/01/26 03:48:27;;;;;;;0.70;0.70;;;;;;;-2.23;93.35;98258.84;29373;232;63009;-62
2022/01/26 03:48:59;;;;;;;0.95;0.95;;;;;;;-2.11;93.20;98267.22;29373;208;63004;-61
2022/01/26 03:49:30;;;;;;;0.70;0.70;;;;;;;-2.07;92.94;98263.19;29371;247;64013;-63
2022/01/26 03:50:01;;;;;;;0.70;0.70;;;;;;;-1.99;92.25;98263.13;29373;204;63005;-61
2022/01/26 03:50:32;;;;;;;0.70;0.70;;;;;;;-1.98;91.72;98263.94;29373;204;63009;-63
2022/01/26 03:51:04;;;;;;;0.80;0.80;;;;;;;-2.01;91.31;98273.09;29373;225;63005;-63
2022/01/26 03:51:36;;;;;;;0.60;0.60;;;;;;;-1.98;91.34;98266.59;29373;256;63009;-60
2022/01/26 03:52:10;;;;;;;0.60;0.60;;;;;;;-1.97;90.95;98271.75;29373;211;63005;-64
2022/01/26 03:52:41;;;;;;;4.00;3.80;;;;;;;-1.92;90.88;98273.88;29373;218;63009;-64
2022/01/26 03:53:12;;;;;;;1.35;1.35;;;;;;;-1.96;90.39;98269.91;29373;212;63018;-63
2022/01/26 03:53:43;;;;;;;0.70;0.70;;;;;;;-2.02;90.69;98274.94;29373;220;63009;-62
2022/01/26 03:54:17;;;;;;;0.60;0.60;;;;;;;-2.05;90.54;98275.28;29371;240;64009;-64
2022/01/26 03:54:48;;;;;;;0.70;0.70;;;;;;;-2.08;90.79;98272.19;29373;204;63009;-64
2022/01/26 03:55:19;;;;;;;0.70;0.70;;;;;;;-2.12;90.79;98279.69;29373;219;63004;-63
2022/01/26 03:55:51;;;;;;;0.60;0.60;;;;;;;-2.11;91.01;98273.38;29373;232;63009;-63
2022/01/26 03:56:22;;;;;;;0.60;0.60;;;;;;;-2.09;91.38;98276.69;29373;202;63004;-61
2022/01/26 03:56:53;;;;;;;0.90;0.90;;;;;;;-2.03;91.18;98270.63;29373;217;63022;-63
2022/01/26 03:57:28;;;;;;;8.93;8.57;;;;;;;-2.07;90.75;98269.31;29370;274;65009;-63
2022/01/26 03:57:59;;;;;;;0.70;0.70;;;;;;;-2.10;90.91;98275.03;29373;208;63009;-64
2022/01/26 03:58:31;;;;;;;0.90;0.90;;;;;;;-2.12;90.89;98271.72;29373;352;63016;-65
2022/01/26 03:59:03;;;;;;;0.70;0.70;;;;;;;-2.08;91.01;98275.66;29373;216;63009;-63
2022/01/26 03:59:35;;;;;;;1.17;1.17;;;;;;;-2.03;90.94;98273.28;29373;294;63005;-60
2022/01/26 04:00:08;;;;;;;1.48;1.27;;;;;;;-1.94;90.77;98273.22;29371;283;64013;-62
2022/01/26 04:00:39;;;;;;;0.70;0.70;;;;;;;-1.88;90.25;98272.50;29373;204;63005;-63
2022/01/26 04:01:12;;;;;;;2.70;2.45;;;;;;;-1.89;90.20;98271.69;29373;223;63009;-63
2022/01/26 04:01:44;;;;;;;0.70;0.70;;;;;;;-1.90;89.59;98267.38;29373;281;63004;-61
2022/01/26 04:02:15;;;;;;;0.70;0.70;;;;;;;-1.91;89.65;98278.19;29373;220;63014;-64
2022/01/26 04:02:46;;;;;;;0.70;0.70;;;;;;;-1.95;89.74;98266.25;29373;223;63009;-62
2022/01/26 04:03:17;;;;;;;2.47;2.10;;;;;;;-1.96;90.23;98269.91;29373;250;63023;-62
2022/01/26 04:03:49;;;;;;;0.70;0.70;;;;;;;-1.95;90.01;98266.25;29373;225;63004;-63